Time,TemperatureF,DewpointF,PressureIn,WindDirection,WindDirectionDegrees,WindSpeedMPH,WindSpeedGustMPH,Humidity,HourlyPrecipIn,Conditions,Clouds,dailyrainin,SoftwareType,DateUTC
2013-07-20 01:03:00,71.3,66.6,29.85,SW,234,15.0,15.0,85,0.00,CLR,,0.00,WeatherDisplay:10.37,2013-07-20 05:03:00,
2013-07-20 01:04:00,71.3,66.6,29.85,SW,234,15.0,15.0,85,0.00,CLR,,0.00,WeatherDisplay:10.37,2013-07-20 05:04:00,
2013-07-20 01:05:00,71.3,66.6,29.85,WSW,242,6.0,6.0,85,0.00,CLR,,0.00,WeatherDisplay:10.37,2013-07-20 05:05:00,
2013-07-20 01:10:00,71.2,66.5,29.85,SW,229,6.0,6.0,85,0.00,CLR,,0.00,WeatherDisplay:10.37,2013-07-20 05:10:00,
2013-07-20 01:15:00,71.0,66.3,29.85,SW,231,8.1,8.1,85,0.00,CLR,,0.00,WeatherDisplay:10.37,2013-07-20 05:15:00,
2013-07-20 01:20:00,71.0,66.3,29.85,WSW,239,7.0,7.0,85,0.00,CLR,,0.00,WeatherDisplay:10.37,2013-07-20 05:20:00,
2013-07-20 01:25:00,70.8,66.1,29.85,WSW,241,9.2,9.2,85,0.00,CLR,,0.00,WeatherDisplay:10.37,2013-07-20 05:25:00,
2013-07-20 01:30:00,70.8,66.1,29.84,SW,236,10.4,10.4,85,0.00,CLR,,0.00,WeatherDisplay:10.37,2013-07-20 05:30:00,
2013-07-20 01:35:00,70.7,66.0,29.84,West,263,11.5,11.5,85,0.00,CLR,,0.00,WeatherDisplay:10.37,2013-07-20 05:35:00,
2013-07-20 01:40:00,70.7,66.0,29.84,SW,226,12.0,12.0,85,0.00,CLR,,0.00,WeatherDisplay:10.37,2013-07-20 05:40:00,
2013-07-20 01:45:00,70.6,65.9,29.83,WSW,242,10.4,10.4,85,0.00,CLR,,0.00,WeatherDisplay:10.37,2013-07-20 05:45:00,
2013-07-20 01:50:00,70.6,65.9,29.83,SSW,199,12.0,12.0,85,0.00,CLR,,0.00,WeatherDisplay:10.37,2013-07-20 05:50:00,
2013-07-20 01:55:00,70.5,65.8,29.83,South,188,11.0,11.0,85,0.00,CLR,,0.00,WeatherDisplay:10.37,2013-07-20 05:55:00,
2013-07-20 02:00:00,70.4,65.7,29.83,SSW,213,13.0,13.0,85,0.00,CLR,,0.00,WeatherDisplay:10.37,2013-07-20 06:00:00,
2013-07-20 02:05:00,70.4,65.7,29.83,SW,221,12.0,12.0,85,0.00,CLR,,0.00,WeatherDisplay:10.37,2013-07-20 06:05:00,
2013-07-20 02:10:00,70.4,65.7,29.83,WSW,254,9.2,9.2,85,0.00,CLR,,0.00,WeatherDisplay:10.37,2013-07-20 06:10:00,
2013-07-20 02:15:00,70.3,65.6,29.83,SW,235,12.0,12.0,85,0.00,CLR,,0.00,WeatherDisplay:10.37,2013-07-20 06:15:00,
2013-07-20 02:20:00,70.2,65.5,29.82,SW,229,10.4,10.4,85,0.00,CLR,,0.00,WeatherDisplay:10.37,2013-07-20 06:20:00,
2013-07-20 02:25:00,70.2,65.5,29.82,SW,226,13.0,13.0,85,0.00,CLR,,0.00,WeatherDisplay:10.37,2013-07-20 06:25:00,
2013-07-20 02:30:00,70.2,65.5,29.82,SW,227,12.0,12.0,85,0.00,CLR,,0.00,WeatherDisplay:10.37,2013-07-20 06:30:00,
2013-07-20 02:35:00,70.2,65.5,29.82,SW,234,12.0,12.0,85,0.00,CLR,,0.00,WeatherDisplay:10.37,2013-07-20 06:35:00,
2013-07-20 02:40:00,70.2,65.5,29.82,SW,227,13.8,13.8,85,0.00,CLR,,0.00,WeatherDisplay:10.37,2013-07-20 06:40:00,
2013-07-20 02:45:00,70.2,65.5,29.81,SW,214,13.0,13.0,85,0.00,CLR,,0.00,WeatherDisplay:10.37,2013-07-20 06:45:00,
2013-07-20 02:50:00,70.1,65.4,29.82,South,180,9.0,9.0,85,0.00,CLR,,0.00,WeatherDisplay:10.37,2013-07-20 06:50:00,
2013-07-20 02:55:00,70.0,65.3,29.82,WSW,242,7.0,7.0,85,0.00,CLR,,0.00,WeatherDisplay:10.37,2013-07-20 06:55:00,
2013-07-20 03:00:00,69.9,65.2,29.81,SW,225,11.0,11.0,85,0.00,CLR,,0.00,WeatherDisplay:10.37,2013-07-20 07:00:00,
2013-07-20 03:05:00,69.9,65.2,29.82,SW,233,10.4,10.4,85,0.00,CLR,,0.00,WeatherDisplay:10.37,2013-07-20 07:05:00,
2013-07-20 03:10:00,69.9,65.2,29.81,SW,234,12.0,12.0,85,0.00,CLR,,0.00,WeatherDisplay:10.37,2013-07-20 07:10:00,
2013-07-20 03:15:00,69.9,65.2,29.82,WSW,237,9.2,9.2,85,0.00,CLR,,0.00,WeatherDisplay:10.37,2013-07-20 07:15:00,
2013-07-20 03:20:00,69.9,65.2,29.82,West,263,10.0,10.0,85,0.00,CLR,,0.00,WeatherDisplay:10.37,2013-07-20 07:20:00,
2013-07-20 03:25:00,69.8,65.1,29.82,SW,226,7.0,7.0,85,0.00,CLR,,0.00,WeatherDisplay:10.37,2013-07-20 07:25:00,
2013-07-20 03:30:00,69.8,65.1,29.81,SSW,213,9.0,9.0,85,0.00,CLR,,0.00,WeatherDisplay:10.37,2013-07-20 07:30:00,
2013-07-20 03:35:00,69.8,65.1,29.81,SSW,213,9.0,9.0,85,0.00,CLR,,0.00,WeatherDisplay:10.37,2013-07-20 07:35:00,
2013-07-20 03:40:00,69.9,65.2,29.81,SW,232,13.0,13.0,85,0.00,CLR,,0.00,WeatherDisplay:10.37,2013-07-20 07:40:00,
2013-07-20 03:45:00,69.9,65.2,29.81,SSW,202,11.5,11.5,85,0.00,CLR,,0.00,WeatherDisplay:10.37,2013-07-20 07:45:00,
2013-07-20 03:50:00,70.0,65.3,29.81,SW,221,12.0,12.0,85,0.00,CLR,,0.00,WeatherDisplay:10.37,2013-07-20 07:50:00,
2013-07-20 03:55:00,70.0,65.3,29.81,WSW,242,10.4,10.4,85,0.00,CLR,,0.00,WeatherDisplay:10.37,2013-07-20 07:55:00,
2013-07-20 04:00:00,70.0,65.3,29.82,WSW,242,9.2,9.2,85,0.00,CLR,,0.00,WeatherDisplay:10.37,2013-07-20 08:00:00,
2013-07-20 04:05:00,70.0,65.3,29.82,SW,234,10.4,10.4,85,0.00,CLR,,0.00,WeatherDisplay:10.37,2013-07-20 08:05:00,
2013-07-20 04:10:00,69.9,65.2,29.81,SSW,205,13.0,13.0,85,0.00,CLR,,0.00,WeatherDisplay:10.37,2013-07-20 08:10:00,
2013-07-20 04:15:00,69.9,65.2,29.81,WSW,240,10.4,10.4,85,0.00,CLR,,0.00,WeatherDisplay:10.37,2013-07-20 08:15:00,
2013-07-20 04:20:00,69.9,65.2,29.82,SW,223,9.2,9.2,85,0.00,CLR,,0.00,WeatherDisplay:10.37,2013-07-20 08:20:00,
2013-07-20 04:25:00,69.8,65.1,29.82,SW,234,8.1,8.1,85,0.00,CLR,,0.00,WeatherDisplay:10.37,2013-07-20 08:25:00,
2013-07-20 04:30:00,69.8,65.1,29.82,WSW,244,10.4,10.4,85,0.00,CLR,,0.00,WeatherDisplay:10.37,2013-07-20 08:30:00,
2013-07-20 04:35:00,69.9,65.2,29.82,SW,225,13.8,13.8,85,0.00,CLR,,0.00,WeatherDisplay:10.37,2013-07-20 08:35:00,
2013-07-20 04:40:00,69.9,65.2,29.82,SW,227,8.1,8.1,85,0.00,CLR,,0.00,WeatherDisplay:10.37,2013-07-20 08:40:00,
2013-07-20 04:45:00,70.0,65.3,29.82,WSW,254,10.4,10.4,85,0.00,CLR,,0.00,WeatherDisplay:10.37,2013-07-20 08:45:00,
2013-07-20 04:50:00,70.0,65.3,29.82,SSW,209,12.0,12.0,85,0.00,CLR,,0.00,WeatherDisplay:10.37,2013-07-20 08:50:00,
2013-07-20 04:55:00,70.0,65.3,29.82,SW,229,8.1,8.1,85,0.00,CLR,,0.00,WeatherDisplay:10.37,2013-07-20 08:55:00,
2013-07-20 05:00:00,70.0,65.3,29.82,West,264,10.4,10.4,85,0.00,CLR,,0.00,WeatherDisplay:10.37,2013-07-20 09:00:00,
2013-07-20 05:05:00,70.1,65.4,29.83,WSW,253,7.0,7.0,85,0.00,CLR,,0.00,WeatherDisplay:10.37,2013-07-20 09:05:00,
2013-07-20 05:10:00,70.1,65.4,29.83,West,259,8.1,8.1,85,0.00,CLR,,0.00,WeatherDisplay:10.37,2013-07-20 09:10:00,
2013-07-20 05:15:00,70.1,65.4,29.83,WSW,240,11.5,11.5,85,0.00,CLR,,0.00,WeatherDisplay:10.37,2013-07-20 09:15:00,
2013-07-20 05:20:00,70.1,65.7,29.82,WSW,244,10.4,10.4,86,0.00,CLR,,0.00,WeatherDisplay:10.37,2013-07-20 09:20:00,
2013-07-20 05:25:00,70.1,65.7,29.82,SW,217,8.0,8.0,86,0.00,CLR,,0.00,WeatherDisplay:10.37,2013-07-20 09:25:00,
2013-07-20 05:30:00,70.1,65.7,29.82,SW,219,8.1,8.1,86,0.00,CLR,,0.00,WeatherDisplay:10.37,2013-07-20 09:30:00,
2013-07-20 05:35:00,70.2,65.8,29.83,WSW,241,7.0,7.0,86,0.00,CLR,,0.00,WeatherDisplay:10.37,2013-07-20 09:35:00,
2013-07-20 05:40:00,70.3,65.9,29.82,SW,232,11.5,11.5,86,0.00,CLR,,0.00,WeatherDisplay:10.37,2013-07-20 09:40:00,
2013-07-20 05:45:00,70.4,66.0,29.82,SW,221,9.0,9.0,86,0.00,CLR,,0.00,WeatherDisplay:10.37,2013-07-20 09:45:00,
2013-07-20 05:50:00,70.4,66.0,29.82,SW,230,11.0,11.0,86,0.00,CLR,,0.00,WeatherDisplay:10.37,2013-07-20 09:50:00,
2013-07-20 05:55:00,70.5,66.1,29.82,WSW,246,10.4,10.4,86,0.00,CLR,,0.00,WeatherDisplay:10.37,2013-07-20 09:55:00,
2013-07-20 06:00:00,70.5,66.1,29.82,SW,227,9.2,9.2,86,0.00,CLR,,0.00,WeatherDisplay:10.37,2013-07-20 10:00:00,
2013-07-20 06:05:00,70.5,66.1,29.82,SW,229,8.1,8.1,86,0.00,CLR,,0.00,WeatherDisplay:10.37,2013-07-20 10:05:00,
2013-07-20 06:10:00,70.5,66.1,29.83,SW,233,9.2,9.2,86,0.00,CLR,,0.00,WeatherDisplay:10.37,2013-07-20 10:10:00,
2013-07-20 06:15:00,70.5,66.1,29.83,SSW,209,12.0,12.0,86,0.00,CLR,,0.00,WeatherDisplay:10.37,2013-07-20 10:15:00,
2013-07-20 06:20:00,70.6,66.2,29.83,SW,229,10.4,10.4,86,0.00,CLR,,0.00,WeatherDisplay:10.37,2013-07-20 10:20:00,
2013-07-20 06:25:00,70.7,66.3,29.82,WSW,242,14.0,14.0,86,0.00,CLR,,0.00,WeatherDisplay:10.37,2013-07-20 10:25:00,
2013-07-20 06:30:00,70.7,66.3,29.82,SW,233,11.5,11.5,86,0.00,CLR,,0.00,WeatherDisplay:10.37,2013-07-20 10:30:00,
2013-07-20 06:35:00,70.8,66.4,29.83,SW,234,11.0,11.0,86,0.00,CLR,,0.00,WeatherDisplay:10.37,2013-07-20 10:35:00,
2013-07-20 06:40:00,70.8,66.4,29.82,WSW,238,11.5,11.5,86,0.00,CLR,,0.00,WeatherDisplay:10.37,2013-07-20 10:40:00,
2013-07-20 06:45:00,70.8,66.4,29.83,WSW,244,8.1,8.1,86,0.00,CLR,,0.00,WeatherDisplay:10.37,2013-07-20 10:45:00,
2013-07-20 06:50:00,70.9,66.5,29.83,SW,222,9.2,9.2,86,0.00,CLR,,0.00,WeatherDisplay:10.37,2013-07-20 10:50:00,
2013-07-20 06:55:00,70.9,66.5,29.83,SW,229,9.2,9.2,86,0.00,CLR,,0.00,WeatherDisplay:10.37,2013-07-20 10:55:00,
2013-07-20 07:00:00,70.9,66.5,29.83,WSW,238,10.0,10.0,86,0.00,CLR,,0.00,WeatherDisplay:10.37,2013-07-20 11:00:00,
2013-07-20 07:05:00,71.0,66.9,29.83,WSW,237,10.4,10.4,87,0.00,CLR,,0.00,WeatherDisplay:10.37,2013-07-20 11:05:00,
2013-07-20 07:10:00,71.0,66.9,29.82,SW,215,11.5,11.5,87,0.00,CLR,,0.00,WeatherDisplay:10.37,2013-07-20 11:10:00,
2013-07-20 07:15:00,71.1,67.0,29.83,SSW,205,11.5,11.5,87,0.00,CLR,,0.00,WeatherDisplay:10.37,2013-07-20 11:15:00,
2013-07-20 07:20:00,71.3,67.2,29.83,WSW,245,14.0,14.0,87,0.00,CLR,,0.00,WeatherDisplay:10.37,2013-07-20 11:20:00,
2013-07-20 07:25:00,71.4,67.3,29.83,SW,223,12.0,12.0,87,0.00,CLR,,0.00,WeatherDisplay:10.37,2013-07-20 11:25:00,
2013-07-20 07:30:00,71.6,67.2,29.84,SW,233,12.0,12.0,86,0.00,CLR,,0.00,WeatherDisplay:10.37,2013-07-20 11:30:00,
2013-07-20 07:35:00,71.7,67.6,29.84,WSW,256,14.0,14.0,87,0.00,CLR,,0.00,WeatherDisplay:10.37,2013-07-20 11:35:00,
2013-07-20 07:40:00,71.7,67.3,29.85,WNW,286,9.2,9.2,86,0.00,CLR,,0.00,WeatherDisplay:10.37,2013-07-20 11:40:00,
2013-07-20 07:45:00,71.8,67.4,29.86,WNW,298,2.3,2.3,86,0.00,CLR,,0.00,WeatherDisplay:10.37,2013-07-20 11:45:00,
2013-07-20 07:50:00,71.7,67.3,29.86,NNE,17,10.0,10.0,86,0.00,CLR,,0.00,WeatherDisplay:10.37,2013-07-20 11:50:00,
2013-07-20 07:55:00,71.5,67.1,29.86,NNE,17,7.0,7.0,86,0.00,CLR,,0.00,WeatherDisplay:10.37,2013-07-20 11:55:00,
2013-07-20 08:00:00,71.3,66.9,29.86,North,5,8.1,8.1,86,0.00,CLR,,0.00,WeatherDisplay:10.37,2013-07-20 12:00:00,
2013-07-20 08:05:00,71.2,66.8,29.86,NNE,22,4.0,4.0,86,0.00,CLR,,0.00,WeatherDisplay:10.37,2013-07-20 12:05:00,
2013-07-20 08:10:00,70.9,66.5,29.85,SE,141,1.2,1.2,86,0.00,CLR,,0.00,WeatherDisplay:10.37,2013-07-20 12:10:00,
2013-07-20 08:15:00,71.0,66.6,29.85,SE,140,0.0,0.0,86,0.00,CLR,,0.00,WeatherDisplay:10.37,2013-07-20 12:15:00,
2013-07-20 08:20:00,71.3,66.9,29.85,SE,140,0.0,0.0,86,0.00,CLR,,0.00,WeatherDisplay:10.37,2013-07-20 12:20:00,
2013-07-20 08:25:00,71.6,67.2,29.85,South,186,3.5,3.5,86,0.00,CLR,,0.00,WeatherDisplay:10.37,2013-07-20 12:25:00,
2013-07-20 08:30:00,71.9,67.5,29.85,WSW,240,3.5,3.5,86,0.00,CLR,,0.00,WeatherDisplay:10.37,2013-07-20 12:30:00,
2013-07-20 08:35:00,72.0,67.6,29.85,SSW,200,1.2,0.0,86,0.00,CLR,,0.00,WeatherDisplay:10.37,2013-07-20 12:35:00,
2013-07-20 08:40:00,72.1,67.3,29.85,SSW,194,3.5,3.5,85,0.00,CLR,,0.00,WeatherDisplay:10.37,2013-07-20 12:40:00,
2013-07-20 08:45:00,72.2,67.4,29.86,SSW,194,0.0,0.0,85,0.00,CLR,,0.00,WeatherDisplay:10.37,2013-07-20 12:45:00,
2013-07-20 08:50:00,72.1,67.3,29.86,SSW,194,3.5,3.5,85,0.00,CLR,,0.00,WeatherDisplay:10.37,2013-07-20 12:50:00,
2013-07-20 08:55:00,72.2,67.4,29.86,West,263,4.0,4.0,85,0.00,CLR,,0.00,WeatherDisplay:10.37,2013-07-20 12:55:00,
2013-07-20 09:00:00,72.2,67.4,29.86,West,260,5.0,5.0,85,0.00,CLR,,0.00,WeatherDisplay:10.37,2013-07-20 13:00:00,
2013-07-20 09:05:00,72.2,67.4,29.86,WSW,240,4.0,4.0,85,0.00,CLR,,0.00,WeatherDisplay:10.37,2013-07-20 13:05:00,
2013-07-20 09:10:00,72.3,67.9,29.86,WSW,250,4.0,4.0,86,0.00,CLR,,0.00,WeatherDisplay:10.37,2013-07-20 13:10:00,
2013-07-20 09:15:00,72.2,67.4,29.86,SW,225,4.0,4.0,85,0.00,CLR,,0.00,WeatherDisplay:10.37,2013-07-20 13:15:00,
2013-07-20 09:20:00,72.1,67.3,29.86,SW,214,3.5,3.5,85,0.00,CLR,,0.00,WeatherDisplay:10.37,2013-07-20 13:20:00,
2013-07-20 09:25:00,72.1,67.7,29.86,SW,215,1.2,1.2,86,0.00,CLR,,0.00,WeatherDisplay:10.37,2013-07-20 13:25:00,
2013-07-20 09:30:00,72.3,67.9,29.86,SW,214,3.5,0.0,86,0.00,CLR,,0.00,WeatherDisplay:10.37,2013-07-20 13:30:00,
2013-07-20 09:35:00,72.7,68.3,29.85,WSW,248,3.5,3.5,86,0.00,CLR,,0.00,WeatherDisplay:10.37,2013-07-20 13:35:00,
2013-07-20 09:40:00,72.8,68.0,29.86,SW,232,4.0,4.0,85,0.00,CLR,,0.00,WeatherDisplay:10.37,2013-07-20 13:40:00,
2013-07-20 09:45:00,73.1,68.7,29.86,SSW,213,4.0,4.0,86,0.00,CLR,,0.00,WeatherDisplay:10.37,2013-07-20 13:45:00,
2013-07-20 09:50:00,73.4,68.6,29.86,SW,214,4.0,4.0,85,0.00,CLR,,0.00,WeatherDisplay:10.37,2013-07-20 13:50:00,
2013-07-20 09:55:00,73.5,68.7,29.86,West,263,4.6,4.6,85,0.00,CLR,,0.00,WeatherDisplay:10.37,2013-07-20 13:55:00,
2013-07-20 10:00:00,73.6,68.8,29.86,SW,230,6.9,6.9,85,0.01,RA,,0.01,WeatherDisplay:10.37,2013-07-20 14:00:00,
2013-07-20 10:05:00,74.0,69.2,29.85,WSW,242,9.0,9.0,85,0.01,RA,,0.01,WeatherDisplay:10.37,2013-07-20 14:05:00,
2013-07-20 10:10:00,74.6,69.8,29.85,West,264,5.0,5.0,85,0.01,,,0.01,WeatherDisplay:10.37,2013-07-20 14:10:00,
2013-07-20 10:15:00,74.8,69.6,29.85,WSW,252,7.0,7.0,84,0.01,CLR,,0.01,WeatherDisplay:10.37,2013-07-20 14:15:00,
2013-07-20 10:20:00,75.1,69.9,29.86,WNW,294,7.0,7.0,84,0.01,CLR,,0.01,WeatherDisplay:10.37,2013-07-20 14:20:00,
2013-07-20 10:25:00,75.7,70.2,29.86,West,265,12.0,12.0,83,0.01,CLR,,0.01,WeatherDisplay:10.37,2013-07-20 14:25:00,
2013-07-20 10:30:00,75.8,69.9,29.86,WNW,300,6.0,6.0,82,0.01,CLR,,0.01,WeatherDisplay:10.37,2013-07-20 14:30:00,
2013-07-20 10:35:00,75.4,69.5,29.86,WNW,292,4.6,4.6,82,0.01,CLR,,0.01,WeatherDisplay:10.37,2013-07-20 14:35:00,
2013-07-20 10:40:00,74.7,68.8,29.87,NNE,30,0.0,0.0,82,0.01,CLR,,0.01,WeatherDisplay:10.37,2013-07-20 14:40:00,
2013-07-20 10:45:00,74.2,68.7,29.86,ENE,74,1.2,0.0,83,0.01,CLR,,0.01,WeatherDisplay:10.37,2013-07-20 14:45:00,
2013-07-20 10:50:00,73.9,68.4,29.86,ENE,74,0.0,0.0,83,0.01,CLR,,0.01,WeatherDisplay:10.37,2013-07-20 14:50:00,
2013-07-20 10:55:00,73.7,68.6,29.85,NW,309,2.3,2.3,84,0.01,CLR,,0.01,WeatherDisplay:10.37,2013-07-20 14:55:00,
2013-07-20 11:00:00,73.5,68.4,29.85,NW,308,0.0,0.0,84,0.00,CLR,,0.01,WeatherDisplay:10.37,2013-07-20 15:00:00,
2013-07-20 11:05:00,73.3,68.2,29.85,NW,307,0.0,0.0,84,0.00,CLR,,0.01,WeatherDisplay:10.37,2013-07-20 15:05:00,
2013-07-20 11:10:00,73.4,68.3,29.85,WNW,285,1.2,1.2,84,0.01,RA,,0.02,WeatherDisplay:10.37,2013-07-20 15:10:00,
2013-07-20 11:15:00,73.5,68.7,29.84,West,259,3.0,3.0,85,0.01,RA,,0.02,WeatherDisplay:10.37,2013-07-20 15:15:00,
2013-07-20 11:20:00,73.6,68.8,29.84,SSW,209,4.0,4.0,85,0.01,,,0.02,WeatherDisplay:10.37,2013-07-20 15:20:00,
2013-07-20 11:25:00,73.5,68.7,29.84,SSW,213,3.5,3.5,85,0.01,CLR,,0.02,WeatherDisplay:10.37,2013-07-20 15:25:00,
2013-07-20 11:30:00,73.7,69.2,29.84,WSW,239,4.0,4.0,86,0.01,CLR,,0.02,WeatherDisplay:10.37,2013-07-20 15:30:00,
2013-07-20 11:35:00,74.2,69.7,29.84,SW,219,6.0,6.0,86,0.01,CLR,,0.02,WeatherDisplay:10.37,2013-07-20 15:35:00,
2013-07-20 11:40:00,74.3,69.8,29.84,SSW,211,7.0,7.0,86,0.01,CLR,,0.02,WeatherDisplay:10.37,2013-07-20 15:40:00,
2013-07-20 11:45:00,74.8,70.3,29.84,SW,226,7.0,7.0,86,0.01,CLR,,0.02,WeatherDisplay:10.37,2013-07-20 15:45:00,
2013-07-20 11:50:00,74.9,70.4,29.84,WSW,242,6.0,6.0,86,0.01,CLR,,0.02,WeatherDisplay:10.37,2013-07-20 15:50:00,
2013-07-20 11:55:00,75.6,70.8,29.84,WSW,248,7.0,7.0,85,0.01,CLR,,0.02,WeatherDisplay:10.37,2013-07-20 15:55:00,
2013-07-20 12:00:00,75.9,70.7,29.84,SW,234,8.1,8.1,84,0.01,CLR,,0.02,WeatherDisplay:10.37,2013-07-20 16:00:00,
2013-07-20 12:05:00,76.2,70.7,29.84,SW,232,10.4,10.4,83,0.01,CLR,,0.02,WeatherDisplay:10.37,2013-07-20 16:05:00,
2013-07-20 12:10:00,76.0,69.7,29.84,WSW,238,11.5,11.5,81,0.00,CLR,,0.02,WeatherDisplay:10.37,2013-07-20 16:10:00,
2013-07-20 12:15:00,76.8,70.5,29.84,SW,232,11.5,11.5,81,0.00,CLR,,0.02,WeatherDisplay:10.37,2013-07-20 16:15:00,
2013-07-20 12:20:00,76.9,70.6,29.83,SW,223,12.0,12.0,81,0.00,CLR,,0.02,WeatherDisplay:10.37,2013-07-20 16:20:00,
2013-07-20 12:25:00,76.6,70.3,29.82,SSW,209,11.5,11.5,81,0.00,CLR,,0.02,WeatherDisplay:10.37,2013-07-20 16:25:00,
2013-07-20 12:30:00,76.4,70.1,29.82,SW,221,15.0,15.0,81,0.00,CLR,,0.02,WeatherDisplay:10.37,2013-07-20 16:30:00,
2013-07-20 12:35:00,76.9,70.6,29.81,SW,227,13.0,13.0,81,0.00,CLR,,0.02,WeatherDisplay:10.37,2013-07-20 16:35:00,
2013-07-20 12:40:00,77.4,71.1,29.82,SSW,206,16.0,16.0,81,0.00,CLR,,0.02,WeatherDisplay:10.37,2013-07-20 16:40:00,
2013-07-20 12:45:00,77.2,70.5,29.82,WSW,244,13.0,13.0,80,0.00,CLR,,0.02,WeatherDisplay:10.37,2013-07-20 16:45:00,
2013-07-20 12:50:00,77.0,70.4,29.82,SW,231,17.0,17.0,80,0.00,CLR,,0.02,WeatherDisplay:10.37,2013-07-20 16:50:00,
2013-07-20 12:55:00,77.4,70.7,29.83,WSW,252,13.0,13.0,80,0.00,CLR,,0.02,WeatherDisplay:10.37,2013-07-20 16:55:00,
2013-07-20 13:00:00,77.7,71.0,29.83,SW,236,16.1,16.1,80,0.00,CLR,,0.02,WeatherDisplay:10.37,2013-07-20 17:00:00,
2013-07-20 13:05:00,77.6,69.8,29.83,SSW,206,14.0,14.0,77,0.00,CLR,,0.02,WeatherDisplay:10.37,2013-07-20 17:05:00,
2013-07-20 13:10:00,77.2,68.7,29.83,SW,221,13.0,13.0,75,0.00,CLR,,0.02,WeatherDisplay:10.37,2013-07-20 17:10:00,
2013-07-20 13:15:00,76.6,68.1,29.83,SW,222,18.4,18.4,75,0.00,CLR,,0.02,WeatherDisplay:10.37,2013-07-20 17:15:00,
2013-07-20 13:20:00,76.3,67.8,29.83,SW,225,17.0,17.0,75,0.00,CLR,,0.02,WeatherDisplay:10.37,2013-07-20 17:20:00,
2013-07-20 13:25:00,76.4,68.7,29.83,SW,231,15.0,15.0,77,0.00,CLR,,0.02,WeatherDisplay:10.37,2013-07-20 17:25:00,
2013-07-20 13:30:00,77.2,68.7,29.82,SW,228,13.0,13.0,75,0.00,CLR,,0.02,WeatherDisplay:10.37,2013-07-20 17:30:00,
2013-07-20 13:35:00,77.1,68.2,29.82,SSW,210,17.3,17.3,74,0.00,CLR,,0.02,WeatherDisplay:10.37,2013-07-20 17:35:00,
2013-07-20 13:40:00,76.7,67.4,29.81,SW,214,18.4,18.4,73,0.00,CLR,,0.02,WeatherDisplay:10.37,2013-07-20 17:40:00,
2013-07-20 13:45:00,76.5,67.6,29.81,SW,214,16.1,16.1,74,0.00,CLR,,0.02,WeatherDisplay:10.37,2013-07-20 17:45:00,
2013-07-20 13:50:00,76.3,67.8,29.82,SW,227,15.0,15.0,75,0.00,CLR,,0.02,WeatherDisplay:10.37,2013-07-20 17:50:00,
2013-07-20 13:55:00,76.2,68.1,29.82,SW,227,12.0,12.0,76,0.00,CLR,,0.02,WeatherDisplay:10.37,2013-07-20 17:55:00,
2013-07-20 14:00:00,76.2,67.7,29.82,WSW,237,17.3,17.3,75,0.00,CLR,,0.02,WeatherDisplay:10.37,2013-07-20 18:00:00,
2013-07-20 14:05:00,76.3,68.6,29.82,SW,231,13.0,13.0,77,0.00,CLR,,0.02,WeatherDisplay:10.37,2013-07-20 18:05:00,
2013-07-20 14:10:00,76.5,68.7,29.83,SW,227,16.0,16.0,77,0.00,CLR,,0.02,WeatherDisplay:10.37,2013-07-20 18:10:00,
2013-07-20 14:15:00,76.2,68.5,29.83,WSW,243,15.0,15.0,77,0.00,CLR,,0.02,WeatherDisplay:10.37,2013-07-20 18:15:00,
2013-07-20 14:20:00,75.8,68.4,29.83,SSW,205,14.0,14.0,78,0.00,CLR,,0.02,WeatherDisplay:10.37,2013-07-20 18:20:00,
2013-07-20 14:26:00,75.2,67.9,29.83,WSW,250,15.0,15.0,78,0.00,CLR,,0.02,WeatherDisplay:10.37,2013-07-20 18:26:00,
2013-07-20 14:31:00,74.8,67.5,29.82,SW,236,17.3,17.3,78,0.00,CLR,,0.02,WeatherDisplay:10.37,2013-07-20 18:31:00,
2013-07-20 14:36:00,74.2,67.3,29.82,SW,235,15.0,15.0,79,0.00,CLR,,0.02,WeatherDisplay:10.37,2013-07-20 18:36:00,
2013-07-20 14:41:00,74.0,67.1,29.81,WSW,237,13.8,13.8,79,0.00,CLR,,0.02,WeatherDisplay:10.37,2013-07-20 18:41:00,
2013-07-20 14:46:00,73.8,67.2,29.81,SSW,199,11.5,11.5,80,0.00,CLR,,0.02,WeatherDisplay:10.37,2013-07-20 18:46:00,
2013-07-20 14:52:00,73.8,67.2,29.81,SSW,209,10.4,10.4,80,0.00,CLR,,0.02,WeatherDisplay:10.37,2013-07-20 18:52:00,
2013-07-20 14:59:00,73.6,66.7,29.81,WSW,240,14.0,14.0,79,0.00,CLR,,0.02,WeatherDisplay:10.37,2013-07-20 18:59:00,
2013-07-20 15:04:00,73.4,66.5,29.81,SW,234,13.0,13.0,79,0.00,CLR,,0.02,WeatherDisplay:10.37,2013-07-20 19:04:00,
2013-07-20 15:09:00,73.3,66.4,29.82,SW,232,13.8,13.8,79,0.00,CLR,,0.02,WeatherDisplay:10.37,2013-07-20 19:09:00,
2013-07-20 15:14:00,73.3,66.8,29.81,WSW,238,13.0,13.0,80,0.00,CLR,,0.02,WeatherDisplay:10.37,2013-07-20 19:14:00,
2013-07-20 15:19:00,73.6,67.4,29.81,SW,230,10.4,10.4,81,0.00,CLR,,0.02,WeatherDisplay:10.37,2013-07-20 19:19:00,
2013-07-20 15:25:00,74.4,67.5,29.81,SW,233,9.2,9.2,79,0.00,CLR,,0.02,WeatherDisplay:10.37,2013-07-20 19:25:00,
2013-07-20 15:30:00,74.9,67.6,29.81,WSW,237,13.0,13.0,78,0.00,CLR,,0.02,WeatherDisplay:10.37,2013-07-20 19:30:00,
2013-07-20 15:35:00,74.5,67.2,29.81,WSW,254,10.4,10.4,78,0.00,CLR,,0.02,WeatherDisplay:10.37,2013-07-20 19:35:00,
2013-07-20 15:40:00,74.0,66.7,29.81,West,268,9.2,9.2,78,0.00,CLR,,0.02,WeatherDisplay:10.37,2013-07-20 19:40:00,
2013-07-20 15:46:00,74.0,66.7,29.81,SSW,199,16.1,16.1,78,0.00,CLR,,0.02,WeatherDisplay:10.37,2013-07-20 19:46:00,
2013-07-20 15:51:00,74.0,67.1,29.81,WSW,252,7.0,7.0,79,0.00,CLR,,0.02,WeatherDisplay:10.37,2013-07-20 19:51:00,
2013-07-20 15:56:00,73.9,67.0,29.81,West,261,9.0,9.0,79,0.00,CLR,,0.02,WeatherDisplay:10.37,2013-07-20 19:56:00,
2013-07-20 16:01:00,73.6,66.3,29.82,SW,236,14.0,14.0,78,0.00,CLR,,0.02,WeatherDisplay:10.37,2013-07-20 20:01:00,
2013-07-20 16:06:00,73.3,66.4,29.81,WSW,244,12.0,12.0,79,0.00,CLR,,0.02,WeatherDisplay:10.37,2013-07-20 20:06:00,
2013-07-20 16:11:00,73.1,66.2,29.81,SSW,198,9.0,9.0,79,0.00,CLR,,0.02,WeatherDisplay:10.37,2013-07-20 20:11:00,
2013-07-20 16:16:00,73.1,66.6,29.80,WSW,238,8.1,8.1,80,0.00,CLR,,0.02,WeatherDisplay:10.37,2013-07-20 20:16:00,
2013-07-20 16:22:00,73.0,66.5,29.80,SW,232,9.2,9.2,80,0.00,CLR,,0.02,WeatherDisplay:10.37,2013-07-20 20:22:00,
2013-07-20 16:27:00,72.9,66.4,29.81,West,267,8.1,8.1,80,0.00,CLR,,0.02,WeatherDisplay:10.37,2013-07-20 20:27:00,
2013-07-20 16:33:00,72.8,66.3,29.80,SW,232,7.0,7.0,80,0.00,CLR,,0.02,WeatherDisplay:10.37,2013-07-20 20:33:00,
2013-07-20 16:38:00,72.7,66.2,29.80,SW,229,7.0,7.0,80,0.00,CLR,,0.02,WeatherDisplay:10.37,2013-07-20 20:38:00,
2013-07-20 16:43:00,72.8,66.3,29.80,WSW,256,4.0,4.0,80,0.00,CLR,,0.02,WeatherDisplay:10.37,2013-07-20 20:43:00,
2013-07-20 16:48:00,72.7,66.5,29.80,WSW,238,6.0,6.0,81,0.00,CLR,,0.02,WeatherDisplay:10.37,2013-07-20 20:48:00,
2013-07-20 16:53:00,72.9,66.7,29.80,SW,232,6.0,6.0,81,0.00,CLR,,0.02,WeatherDisplay:10.37,2013-07-20 20:53:00,
2013-07-20 16:59:00,73.2,66.7,29.81,WNW,284,6.0,6.0,80,0.00,CLR,,0.02,WeatherDisplay:10.37,2013-07-20 20:59:00,
2013-07-20 17:05:00,73.1,66.6,29.81,West,270,3.0,7.0,80,0.00,CLR,CLR,0.02,WeatherDisplay:10.37,2013-07-20 21:05:00,
2013-07-20 17:10:00,73.3,67.2,29.82,West,263,2.0,8.0,81,0.00,CLR,CLR,0.02,WeatherDisplay:10.37,2013-07-20 21:10:00,
2013-07-20 17:15:00,73.4,66.9,29.82,West,269,9.0,9.0,80,0.00,CLR,,0.02,WeatherDisplay:10.37,2013-07-20 21:15:00,
2013-07-20 17:21:00,73.3,66.4,29.82,WSW,242,12.0,12.0,79,0.00,CLR,,0.02,WeatherDisplay:10.37,2013-07-20 21:21:00,
2013-07-20 17:26:00,73.6,66.7,29.82,West,271,6.0,6.0,79,0.00,CLR,,0.02,WeatherDisplay:10.37,2013-07-20 21:26:00,
2013-07-20 17:31:00,73.8,66.9,29.82,West,277,4.6,4.6,79,0.00,CLR,,0.02,WeatherDisplay:10.37,2013-07-20 21:31:00,
2013-07-20 17:36:00,74.5,67.6,29.82,West,261,7.0,7.0,79,0.00,CLR,,0.02,WeatherDisplay:10.37,2013-07-20 21:36:00,
2013-07-20 17:41:00,74.9,67.6,29.83,WNW,284,8.1,8.1,78,0.00,CLR,,0.02,WeatherDisplay:10.37,2013-07-20 21:41:00,
2013-07-20 17:46:00,75.4,68.1,29.83,WNW,292,14.0,14.0,78,0.00,CLR,,0.02,WeatherDisplay:10.37,2013-07-20 21:46:00,
2013-07-20 17:51:00,75.5,67.0,29.83,West,260,12.7,12.7,75,0.00,CLR,,0.02,WeatherDisplay:10.37,2013-07-20 21:51:00,
2013-07-20 17:57:00,75.4,66.9,29.83,WSW,246,10.4,10.4,75,0.00,CLR,,0.02,WeatherDisplay:10.37,2013-07-20 21:57:00,
2013-07-20 18:02:00,75.4,66.9,29.83,SW,233,8.1,8.1,75,0.00,CLR,,0.02,WeatherDisplay:10.37,2013-07-20 22:02:00,
2013-07-20 18:07:00,75.4,66.9,29.83,WNW,292,11.5,11.5,75,0.00,CLR,,0.02,WeatherDisplay:10.37,2013-07-20 22:07:00,
2013-07-20 18:12:00,75.6,67.5,29.83,WSW,242,10.4,10.4,76,0.00,CLR,,0.02,WeatherDisplay:10.37,2013-07-20 22:12:00,
2013-07-20 18:17:00,75.5,67.0,29.82,WNW,302,4.6,4.6,75,0.00,CLR,,0.02,WeatherDisplay:10.37,2013-07-20 22:17:00,
2013-07-20 18:22:00,75.2,67.1,29.83,WSW,253,7.0,7.0,76,0.00,CLR,,0.02,WeatherDisplay:10.37,2013-07-20 22:22:00,
2013-07-20 18:27:00,75.1,67.0,29.82,West,261,6.9,6.9,76,0.00,CLR,,0.02,WeatherDisplay:10.37,2013-07-20 22:27:00,
2013-07-20 18:32:00,75.1,66.6,29.82,West,269,6.0,6.0,75,0.00,CLR,,0.02,WeatherDisplay:10.37,2013-07-20 22:32:00,
2013-07-20 18:37:00,75.1,67.0,29.82,West,268,4.0,4.0,76,0.00,CLR,,0.02,WeatherDisplay:10.37,2013-07-20 22:37:00,
2013-07-20 18:43:00,75.0,66.5,29.82,West,271,6.0,6.0,75,0.00,CLR,,0.02,WeatherDisplay:10.37,2013-07-20 22:43:00,
2013-07-20 18:48:00,75.1,66.6,29.82,West,263,7.0,7.0,75,0.00,CLR,,0.02,WeatherDisplay:10.37,2013-07-20 22:48:00,
2013-07-20 18:53:00,75.0,66.5,29.82,West,268,8.0,8.0,75,0.00,CLR,,0.02,WeatherDisplay:10.37,2013-07-20 22:53:00,
2013-07-20 18:59:00,74.9,66.4,29.82,West,260,7.0,7.0,75,0.00,CLR,,0.02,WeatherDisplay:10.37,2013-07-20 22:59:00,
2013-07-20 19:05:00,74.7,66.6,29.82,West,278,6.0,9.0,76,0.00,CLR,CLR,0.02,WeatherDisplay:10.37,2013-07-20 23:05:00,
2013-07-20 19:10:00,74.6,66.5,29.82,West,271,5.0,8.0,76,0.00,CLR,CLR,0.02,WeatherDisplay:10.37,2013-07-20 23:10:00,
2013-07-20 19:15:00,74.5,66.4,29.82,West,260,5.0,7.0,76,0.00,CLR,CLR,0.02,WeatherDisplay:10.37,2013-07-20 23:15:00,
2013-07-20 19:20:00,74.4,66.7,29.82,WSW,257,3.0,5.0,77,0.00,CLR,CLR,0.02,WeatherDisplay:10.37,2013-07-20 23:20:00,
2013-07-20 19:25:00,74.3,66.6,29.83,WSW,255,6.0,6.0,77,0.00,CLR,,0.02,WeatherDisplay:10.37,2013-07-20 23:25:00,
2013-07-20 19:30:00,74.2,66.5,29.83,SW,229,5.0,5.0,77,0.00,CLR,,0.02,WeatherDisplay:10.37,2013-07-20 23:30:00,
2013-07-20 19:35:00,74.2,66.5,29.83,WSW,250,6.0,9.0,77,0.00,CLR,CLR,0.02,WeatherDisplay:10.37,2013-07-20 23:35:00,
2013-07-20 19:40:00,74.0,66.3,29.83,WSW,256,8.1,8.1,77,0.00,CLR,,0.02,WeatherDisplay:10.37,2013-07-20 23:40:00,
2013-07-20 19:45:00,73.9,66.2,29.83,WSW,244,9.0,9.0,77,0.00,CLR,,0.02,WeatherDisplay:10.37,2013-07-20 23:45:00,
2013-07-20 19:50:00,73.9,65.9,29.84,WSW,252,9.0,9.0,76,0.00,CLR,,0.02,WeatherDisplay:10.37,2013-07-20 23:50:00,
2013-07-20 19:55:00,73.9,65.9,29.84,WSW,255,10.4,10.4,76,0.00,CLR,,0.02,WeatherDisplay:10.37,2013-07-20 23:55:00,
2013-07-20 20:01:00,73.8,65.8,29.84,West,259,10.4,10.4,76,0.00,CLR,,0.02,WeatherDisplay:10.37,2013-07-21 00:01:00,
2013-07-20 20:07:00,73.7,65.3,29.83,WSW,258,10.4,10.4,75,0.00,CLR,,0.02,WeatherDisplay:10.37,2013-07-21 00:07:00,
2013-07-20 20:12:00,73.6,65.2,29.83,West,268,11.0,11.0,75,0.00,CLR,,0.02,WeatherDisplay:10.37,2013-07-21 00:12:00,
2013-07-20 20:17:00,73.3,65.3,29.83,WSW,253,10.0,10.0,76,0.00,CLR,,0.02,WeatherDisplay:10.37,2013-07-21 00:17:00,
2013-07-20 20:22:00,73.1,65.1,29.83,WSW,258,10.0,10.0,76,0.00,CLR,,0.02,WeatherDisplay:10.37,2013-07-21 00:22:00,
2013-07-20 20:27:00,72.9,64.9,29.83,West,262,7.0,7.0,76,0.00,CLR,,0.02,WeatherDisplay:10.37,2013-07-21 00:27:00,
2013-07-20 20:32:00,72.8,64.8,29.83,West,259,8.1,8.1,76,0.00,CLR,,0.02,WeatherDisplay:10.37,2013-07-21 00:32:00,
2013-07-20 20:38:00,72.7,65.1,29.83,WSW,250,7.0,7.0,77,0.00,CLR,,0.02,WeatherDisplay:10.37,2013-07-21 00:38:00,
2013-07-20 20:43:00,72.4,64.8,29.83,West,261,8.1,8.1,77,0.00,CLR,,0.02,WeatherDisplay:10.37,2013-07-21 00:43:00,
2013-07-20 20:49:00,72.2,64.6,29.83,SW,229,7.0,7.0,77,0.00,CLR,,0.02,WeatherDisplay:10.37,2013-07-21 00:49:00,
2013-07-20 20:54:00,72.1,64.5,29.83,WSW,256,8.1,8.1,77,0.00,CLR,,0.02,WeatherDisplay:10.37,2013-07-21 00:54:00,
2013-07-20 20:59:00,72.0,64.8,29.83,WSW,242,7.0,7.0,78,0.00,CLR,,0.02,WeatherDisplay:10.37,2013-07-21 00:59:00,
2013-07-20 21:04:00,72.0,64.8,29.83,WSW,238,6.9,6.9,78,0.00,CLR,,0.02,WeatherDisplay:10.37,2013-07-21 01:04:00,
2013-07-20 21:09:00,71.9,64.7,29.83,SW,227,7.0,7.0,78,0.00,CLR,,0.02,WeatherDisplay:10.37,2013-07-21 01:09:00,
2013-07-20 21:14:00,71.3,64.4,29.84,WSW,245,4.0,4.0,79,0.00,CLR,,0.02,WeatherDisplay:10.37,2013-07-21 01:14:00,
2013-07-20 21:19:00,71.0,64.2,29.84,SW,217,6.0,6.0,79,0.00,CLR,,0.02,WeatherDisplay:10.37,2013-07-21 01:19:00,
2013-07-20 21:25:00,70.9,64.4,29.84,WSW,240,5.0,5.0,80,0.00,CLR,,0.02,WeatherDisplay:10.37,2013-07-21 01:25:00,
2013-07-20 21:30:00,71.1,64.6,29.84,SW,229,6.0,6.0,80,0.00,CLR,,0.02,WeatherDisplay:10.37,2013-07-21 01:30:00,
2013-07-20 21:35:00,70.9,64.4,29.84,WSW,246,6.0,6.0,80,0.00,CLR,,0.02,WeatherDisplay:10.37,2013-07-21 01:35:00,
2013-07-20 21:40:00,70.7,64.2,29.84,SW,226,5.0,5.0,80,0.00,CLR,,0.02,WeatherDisplay:10.37,2013-07-21 01:40:00,
2013-07-20 21:45:00,70.4,64.3,29.85,SW,229,4.0,4.0,81,0.00,CLR,,0.02,WeatherDisplay:10.37,2013-07-21 01:45:00,
2013-07-20 21:50:00,70.3,64.2,29.84,SSW,198,6.0,6.0,81,0.00,CLR,,0.02,WeatherDisplay:10.37,2013-07-21 01:50:00,
2013-07-20 21:56:00,70.3,64.5,29.84,WSW,256,5.0,5.0,82,0.00,CLR,,0.02,WeatherDisplay:10.37,2013-07-21 01:56:00,
2013-07-20 22:01:00,70.4,64.6,29.85,WSW,251,6.0,6.0,82,0.00,CLR,,0.02,WeatherDisplay:10.37,2013-07-21 02:01:00,
2013-07-20 22:07:00,70.4,64.6,29.85,WSW,254,4.6,4.6,82,0.00,CLR,,0.02,WeatherDisplay:10.37,2013-07-21 02:07:00,
2013-07-20 22:12:00,70.2,64.4,29.85,WSW,237,4.0,4.0,82,0.00,CLR,,0.02,WeatherDisplay:10.37,2013-07-21 02:12:00,
2013-07-20 22:17:00,70.1,64.3,29.85,SW,234,4.0,4.0,82,0.00,CLR,,0.02,WeatherDisplay:10.37,2013-07-21 02:17:00,
2013-07-20 22:23:00,70.0,64.6,29.86,WSW,244,3.5,3.5,83,0.00,CLR,,0.02,WeatherDisplay:10.37,2013-07-21 02:23:00,
2013-07-20 22:28:00,70.2,64.8,29.86,WSW,253,3.5,3.5,83,0.00,CLR,,0.02,WeatherDisplay:10.37,2013-07-21 02:28:00,
2013-07-20 22:33:00,70.4,65.0,29.86,WSW,252,3.5,3.5,83,0.00,CLR,,0.02,WeatherDisplay:10.37,2013-07-21 02:33:00,
2013-07-20 22:38:00,70.2,64.8,29.86,SW,234,6.0,6.0,83,0.00,CLR,,0.02,WeatherDisplay:10.37,2013-07-21 02:38:00,
2013-07-20 22:43:00,69.9,64.5,29.86,West,267,4.0,4.0,83,0.00,CLR,,0.02,WeatherDisplay:10.37,2013-07-21 02:43:00,
2013-07-20 22:48:00,69.8,64.4,29.86,WSW,256,3.5,3.5,83,0.00,CLR,,0.02,WeatherDisplay:10.37,2013-07-21 02:48:00,
2013-07-20 22:53:00,69.7,64.6,29.86,SW,233,5.0,5.0,84,0.00,CLR,,0.02,WeatherDisplay:10.37,2013-07-21 02:53:00,
2013-07-20 22:58:00,69.7,64.6,29.86,WSW,238,5.0,5.0,84,0.00,CLR,,0.02,WeatherDisplay:10.37,2013-07-21 02:58:00,
2013-07-20 23:03:00,69.8,64.7,29.86,SW,231,4.0,4.0,84,0.00,CLR,,0.02,WeatherDisplay:10.37,2013-07-21 03:03:00,
2013-07-20 23:08:00,69.6,64.5,29.86,SW,233,4.0,4.0,84,0.00,CLR,,0.02,WeatherDisplay:10.37,2013-07-21 03:08:00,
2013-07-20 23:14:00,69.5,64.5,29.86,SSW,213,4.0,4.0,84,0.00,CLR,,0.02,WeatherDisplay:10.37,2013-07-21 03:14:00,
2013-07-20 23:19:00,69.4,64.4,29.87,SW,229,5.8,5.8,84,0.00,CLR,,0.02,WeatherDisplay:10.37,2013-07-21 03:19:00,
2013-07-20 23:24:00,69.4,64.4,29.87,WSW,242,4.0,4.0,84,0.00,CLR,,0.02,WeatherDisplay:10.37,2013-07-21 03:24:00,
2013-07-20 23:29:00,69.4,64.7,29.87,SW,221,3.5,3.5,85,0.00,CLR,,0.02,WeatherDisplay:10.37,2013-07-21 03:29:00,
2013-07-20 23:34:00,69.4,64.7,29.87,SW,221,1.2,1.2,85,0.00,CLR,,0.02,WeatherDisplay:10.37,2013-07-21 03:34:00,
2013-07-20 23:39:00,69.4,64.7,29.87,SW,221,1.2,0.0,85,0.00,CLR,,0.02,WeatherDisplay:10.37,2013-07-21 03:39:00,
2013-07-20 23:44:00,69.3,64.6,29.87,SW,224,2.0,2.0,85,0.00,CLR,,0.02,WeatherDisplay:10.37,2013-07-21 03:44:00,
2013-07-20 23:49:00,69.4,64.7,29.88,WSW,247,0.0,0.0,85,0.00,CLR,,0.02,WeatherDisplay:10.37,2013-07-21 03:49:00,
2013-07-20 23:54:00,69.3,64.6,29.88,WSW,247,0.0,0.0,85,0.00,CLR,,0.02,WeatherDisplay:10.37,2013-07-21 03:54:00,
2013-07-20 23:59:00,69.3,64.6,29.88,WSW,244,3.5,3.5,85,0.00,CLR,,0.02,WeatherDisplay:10.37,2013-07-21 03:59:00,